This is the latest recevied weather packets stored in our database for station/object DH1FR-13. If no packets are shown the sender has not sent any weather packets the latest 10 day(s).
| Time | Temp. | Humidity | Pressure | Rain* | Wind** | Luminosity | Snow |
|---|---|---|---|---|---|---|---|
| 1787844600 | 30° C | 48% | 1015.4 hPa | 0 mm | 0 m/s | - | - |
| 1787844001 | 30° C | 47% | 1015.4 hPa | 0 mm | 0 m/s | - | - |
| 1787843400 | 30.56° C | 46% | 1015.6 hPa | 0 mm | 0 m/s | - | - |
| 1787842801 | 30.56° C | 46% | 1015.6 hPa | 0 mm | 0 m/s | - | - |
| 1787842200 | 30° C | 49% | 1015.3 hPa | 0 mm | 0 m/s | - | - |
| 1787841601 | 29.44° C | 50% | 1015.6 hPa | 0 mm | 0 m/s | - | - |
| 1787841000 | 29.44° C | 49% | 1015.5 hPa | 0 mm | 0 m/s | - | - |
| 1787840400 | 28.89° C | 50% | 1015.3 hPa | 0 mm | 0 m/s | - | - |
| 1787839801 | 29.44° C | 49% | 1015.5 hPa | 0 mm | 0 m/s | - | - |
| 1787839200 | 29.44° C | 49% | 1015.6 hPa | 0 mm | 0 m/s | - | - |
| 1787838601 | 30° C | 48% | 1015.5 hPa | 0 mm | 0 m/s | - | - |
| 1787838000 | 30° C | 47% | 1015.3 hPa | 0 mm | 0 m/s | - | - |
| 1787837401 | 30° C | 47% | 1015.4 hPa | 0 mm | 0 m/s | - | - |
| 1787836801 | 29.44° C | 48% | 1015.7 hPa | 0 mm | 0 m/s | - | - |
| 1787836201 | 29.44° C | 48% | 1015.9 hPa | 0 mm | 0.45 m/s, 136° | - | - |
| 1787835601 | 29.44° C | 47% | 1015.6 hPa | 0 mm | 0.45 m/s, 136° | - | - |
| 1787835001 | 30° C | 47% | 1015.8 hPa | 0 mm | 0.45 m/s, 146° | - | - |
| 1787834400 | 30° C | 48% | 1015.7 hPa | 0 mm | 0.45 m/s, 144° | - | - |
| 1787833800 | 29.44° C | 49% | 1015.9 hPa | 0 mm | 0.45 m/s, 144° | - | - |
| 1787833201 | 29.44° C | 51% | 1016 hPa | 0 mm | 0.45 m/s, 148° | - | - |
| 1787832601 | 28.33° C | 54% | 1016.1 hPa | 0 mm | 0 m/s | - | - |
| 1787832001 | 28.33° C | 53% | 1016.1 hPa | 0 mm | 0 m/s | - | - |
| 1787831401 | 28.33° C | 54% | 1016.4 hPa | 0 mm | 0 m/s | - | - |
| 1787830801 | 27.78° C | 56% | 1016.3 hPa | 0 mm | 0 m/s | - | - |
| 1787830201 | 27.78° C | 57% | 1016.6 hPa | 0 mm | 0.45 m/s, 132° | - | - |
* Rain latest hour (hover to see other rain measurements)
** Current wind speed in m/s (hover to see current wind gust speed)